Time;durP1;ratioP1;P1;durP2;ratioP2;P2;SDS_P1;SDS_P2;PMS_P1;PMS_P2;Temp;Humidity;BMP_temperature;BMP_pressure;BME280_temperature;BME280_humidity;BME280_pressure;Samples;Min_cycle;Max_cycle;Signal;HPM_P1;HPM_P2
2023/09/02 00:00:45;;;;;;;12.02;10.02;;;;;;;21.68;53.21;95016.88;4199725;28;20339;-83
2023/09/02 00:02:47;;;;;;;11.75;10.48;;;;;;;21.54;53.29;95018.88;4201267;28;20096;-83
2023/09/02 00:04:49;;;;;;;11.85;10.75;;;;;;;21.38;54.08;95024.72;4174372;28;20057;-79
2023/09/02 00:06:51;;;;;;;11.50;10.50;;;;;;;21.34;54.08;95024.34;4180159;28;20044;-83
2023/09/02 00:08:53;;;;;;;11.60;10.38;;;;;;;21.40;53.89;95020.81;4190746;28;20111;-84
2023/09/02 00:10:54;;;;;;;12.32;11.23;;;;;;;21.47;53.66;95023.47;4209055;28;20048;-83
2023/09/02 00:12:56;;;;;;;13.25;10.55;;;;;;;21.53;53.71;95022.59;4192885;28;20049;-82
2023/09/02 00:14:58;;;;;;;12.10;11.00;;;;;;;21.53;53.56;95016.41;4177193;28;20056;-81
2023/09/02 00:17:00;;;;;;;11.48;10.48;;;;;;;21.53;53.53;95011.94;4190747;28;20415;-82
2023/09/02 00:19:04;;;;;;;11.68;10.75;;;;;;;21.55;53.49;95015.16;4171314;28;20466;-84
2023/09/02 00:21:06;;;;;;;11.82;10.63;;;;;;;21.53;53.81;95009.25;4191289;28;20131;-83
2023/09/02 00:23:07;;;;;;;12.13;11.02;;;;;;;21.55;53.71;95011.69;4180984;28;20248;-82
2023/09/02 00:25:09;;;;;;;11.68;10.57;;;;;;;21.54;53.37;95013.53;4206238;28;20055;-81
2023/09/02 00:27:11;;;;;;;12.27;11.07;;;;;;;21.54;53.65;95013.53;4202133;28;20190;-82
2023/09/02 00:29:13;;;;;;;12.50;10.98;;;;;;;21.56;53.50;95010.66;4186792;28;20045;-82
2023/09/02 00:31:14;;;;;;;11.77;10.57;;;;;;;21.58;53.60;95013.94;4174267;28;20370;-85
2023/09/02 00:33:16;;;;;;;13.70;11.25;;;;;;;21.57;53.63;95014.94;4192039;28;20053;-85
2023/09/02 00:35:21;;;;;;;12.05;11.00;;;;;;;21.53;53.44;95009.25;4178020;28;20108;-83
2023/09/02 00:37:23;;;;;;;12.27;10.98;;;;;;;21.53;53.60;95013.75;4200105;28;20052;-83
2023/09/02 00:39:25;;;;;;;12.40;11.20;;;;;;;21.53;53.74;95022.59;4186227;28;20083;-84
2023/09/02 00:41:36;;;;;;;11.88;10.85;;;;;;;21.50;53.65;95028.34;4178204;28;20045;-85
2023/09/02 00:43:39;;;;;;;11.88;10.80;;;;;;;21.47;53.99;95026.94;4211866;28;20249;-83
2023/09/02 00:45:41;;;;;;;12.00;10.93;;;;;;;21.44;54.00;95027.34;4179121;28;20179;-83
2023/09/02 00:47:45;;;;;;;11.95;10.90;;;;;;;21.40;54.09;95022.66;4173866;28;20056;-83
2023/09/02 00:49:47;;;;;;;12.65;11.50;;;;;;;21.38;54.04;95025.56;4178619;28;20060;-82
2023/09/02 00:51:49;;;;;;;12.35;11.25;;;;;;;21.37;54.08;95026.56;4201373;28;20136;-83
2023/09/02 00:53:50;;;;;;;12.60;11.32;;;;;;;21.39;54.37;95024.50;4207463;28;20072;-81
2023/09/02 00:55:52;;;;;;;11.93;10.80;;;;;;;21.39;54.39;95023.69;4210773;28;20068;-83
2023/09/02 00:57:56;;;;;;;12.13;10.93;;;;;;;21.40;54.34;95022.66;4169844;28;20136;-80
2023/09/02 00:59:59;;;;;;;11.93;10.93;;;;;;;21.41;54.20;95019.81;4211073;28;20064;-83
2023/09/02 01:02:03;;;;;;;12.07;10.55;;;;;;;21.39;54.43;95027.19;4200747;28;20048;-81
2023/09/02 01:04:05;;;;;;;11.98;10.93;;;;;;;21.36;54.54;95016.97;4186203;28;20053;-82
2023/09/02 01:06:08;;;;;;;11.98;10.98;;;;;;;21.32;54.68;95015.78;4196948;28;20044;-83
2023/09/02 01:08:11;;;;;;;11.23;10.23;;;;;;;21.30;54.56;95017.03;4193175;28;20045;-87
2023/09/02 01:10:13;;;;;;;;;;;;;;;21.27;54.79;95016.44;4163503;28;20125;-84
2023/09/02 01:12:15;;;;;;;12.02;10.93;;;;;;;21.24;54.60;95016.03;4178785;28;20015;-84
2023/09/02 01:14:17;;;;;;;12.45;11.23;;;;;;;21.17;54.89;95017.94;4175240;28;20052;-83
2023/09/02 01:16:18;;;;;;;12.68;11.18;;;;;;;21.17;54.94;95023.28;4187188;28;20052;-85
2023/09/02 01:18:24;;;;;;;14.23;11.80;;;;;;;21.14;55.04;95018.38;4183330;28;20057;-81
2023/09/02 01:20:56;;;;;;;12.77;11.50;;;;;;;21.00;55.60;95020.31;4185529;28;20448;-83
2023/09/02 01:23:14;;;;;;;12.90;11.65;;;;;;;20.79;56.00;95022.28;4151086;28;20137;-83
2023/09/02 01:25:30;;;;;;;12.05;10.85;;;;;;;20.70;56.36;95022.78;4169739;28;20168;-82
2023/09/02 01:27:35;;;;;;;11.80;10.70;;;;;;;20.72;56.04;95020.72;4186474;28;20238;-82
2023/09/02 01:29:44;;;;;;;12.20;11.00;;;;;;;20.74;55.96;95026.66;4180264;28;20134;-84
2023/09/02 01:31:49;;;;;;;12.52;11.23;;;;;;;20.76;55.89;95016.59;4182007;28;20049;-84
2023/09/02 01:33:53;;;;;;;12.35;11.07;;;;;;;20.76;55.82;95022.72;4174566;28;20105;-83
2023/09/02 01:35:54;;;;;;;;;;;;;;;20.80;55.65;95023.94;4159016;28;20183;-83
2023/09/02 01:37:57;;;;;;;12.05;10.85;;;;;;;20.78;55.45;95015.34;4168179;28;19964;-83
2023/09/02 01:39:59;;;;;;;11.20;10.20;;;;;;;20.82;55.37;95027.19;4177980;28;20088;-82
2023/09/02 01:42:01;;;;;;;12.38;11.15;;;;;;;20.84;55.47;95025.16;4189988;28;20084;-82
2023/09/02 01:44:05;;;;;;;12.30;10.82;;;;;;;20.83;55.26;95023.50;4188271;28;20060;-84
2023/09/02 01:46:08;;;;;;;12.18;10.57;;;;;;;20.84;55.44;95024.31;4197565;28;20071;-84
2023/09/02 01:48:10;;;;;;;12.60;11.35;;;;;;;20.85;55.32;95026.75;4167986;28;20554;-85
2023/09/02 01:50:14;;;;;;;11.07;9.97;;;;;;;20.88;55.38;95028.19;4194261;28;20044;-83
2023/09/02 01:52:17;;;;;;;11.13;10.23;;;;;;;20.91;55.12;95027.75;4197637;28;20747;-87
2023/09/02 01:54:19;;;;;;;11.95;10.85;;;;;;;20.91;55.16;95029.59;4192942;28;20053;-82
2023/09/02 01:56:21;;;;;;;12.13;10.93;;;;;;;20.87;55.19;95026.56;4167066;28;20152;-84
2023/09/02 01:58:25;;;;;;;12.60;10.60;;;;;;;20.86;55.37;95027.56;4167738;28;20053;-83
2023/09/02 02:00:26;;;;;;;;;;;;;;;20.82;55.41;95031.69;4184930;28;20045;-84
2023/09/02 02:02:28;;;;;;;11.05;10.15;;;;;;;20.78;55.34;95033.16;4190571;28;19983;-85
2023/09/02 02:04:35;;;;;;;13.25;10.60;;;;;;;20.71;55.53;95035.84;4187594;28;20135;-81
2023/09/02 02:06:39;;;;;;;12.05;11.05;;;;;;;20.68;55.73;95030.97;4178399;28;20049;-85
2023/09/02 02:09:14;;;;;;;12.80;11.20;;;;;;;20.61;56.02;95035.53;4204305;28;20503;-82
2023/09/02 02:11:15;;;;;;;11.88;10.48;;;;;;;20.52;56.08;95029.59;4150831;28;20044;-85
2023/09/02 02:13:17;;;;;;;12.73;10.32;;;;;;;20.57;55.99;95039.59;4175178;28;20079;-85
2023/09/02 02:15:19;;;;;;;12.23;11.02;;;;;;;20.59;55.83;95030.41;4193162;28;20475;-84
2023/09/02 02:17:21;;;;;;;11.20;10.20;;;;;;;20.62;55.74;95031.81;4184067;28;20053;-85
2023/09/02 02:19:24;;;;;;;12.35;11.02;;;;;;;20.59;55.71;95032.25;4182174;28;20129;-85
2023/09/02 02:21:27;;;;;;;12.27;11.18;;;;;;;20.60;55.94;95033.88;4176726;28;20171;-84
2023/09/02 02:23:29;;;;;;;12.38;11.27;;;;;;;20.59;55.74;95027.75;4164723;28;20063;-84
2023/09/02 02:25:31;;;;;;;15.88;11.05;;;;;;;20.60;55.76;95032.03;4198183;28;20050;-83
2023/09/02 02:27:33;;;;;;;12.80;11.50;;;;;;;20.65;55.53;95036.72;4191686;28;20063;-83
2023/09/02 02:29:35;;;;;;;12.00;10.90;;;;;;;20.64;55.54;95030.56;4193489;28;20044;-82
2023/09/02 02:31:38;;;;;;;11.45;10.43;;;;;;;20.63;55.60;95030.81;4192460;28;20052;-84
2023/09/02 02:33:40;;;;;;;11.48;10.43;;;;;;;20.58;56.10;95031.41;4200210;28;20045;-87
2023/09/02 02:35:42;;;;;;;11.07;10.00;;;;;;;20.61;56.03;95038.19;4173757;28;20048;-83
2023/09/02 02:37:44;;;;;;;12.18;10.95;;;;;;;20.56;55.93;95021.97;4176595;28;20120;-86
2023/09/02 02:39:46;;;;;;;12.05;10.85;;;;;;;20.61;55.73;95035.53;4209143;28;20076;-83
2023/09/02 02:41:49;;;;;;;12.50;11.20;;;;;;;20.57;56.12;95031.63;4208537;28;20083;-84
2023/09/02 02:43:54;;;;;;;12.32;10.95;;;;;;;20.48;56.18;95031.06;4206325;28;20033;-83
2023/09/02 02:45:55;;;;;;;12.48;11.18;;;;;;;20.41;56.63;95033.75;4191616;28;20049;-81
2023/09/02 02:47:58;;;;;;;12.55;11.35;;;;;;;20.26;56.72;95022.53;4175977;28;20053;-83
2023/09/02 02:50:02;;;;;;;14.55;11.90;;;;;;;20.07;56.96;95024.25;4186017;28;20076;-81
2023/09/02 02:52:04;;;;;;;12.95;11.68;;;;;;;19.90;57.31;95031.88;4188051;28;20078;-84
2023/09/02 02:54:06;;;;;;;13.30;11.40;;;;;;;19.63;58.42;95025.75;4167020;28;20096;-84
2023/09/02 02:56:09;;;;;;;12.20;11.10;;;;;;;19.64;58.76;95036.19;4178909;28;20041;-81
2023/09/02 02:58:15;;;;;;;12.50;10.88;;;;;;;19.74;58.45;95033.13;4178732;28;20049;-84
2023/09/02 03:00:17;;;;;;;13.55;12.15;;;;;;;19.87;58.17;95028.81;4191283;28;20406;-83
2023/09/02 03:02:19;;;;;;;13.18;11.80;;;;;;;19.89;57.93;95030.22;4196628;28;20076;-81
2023/09/02 03:04:21;;;;;;;13.35;11.43;;;;;;;19.94;58.04;95032.25;4179013;28;20116;-82
2023/09/02 03:06:23;;;;;;;12.80;11.18;;;;;;;19.94;57.73;95041.06;4184921;28;20342;-84
2023/09/02 03:08:24;;;;;;;12.80;11.45;;;;;;;19.93;57.90;95044.75;4203500;28;20052;-82
2023/09/02 03:10:27;;;;;;;12.27;11.18;;;;;;;19.79;57.88;95043.97;4205810;28;20079;-83
2023/09/02 03:12:32;;;;;;;15.23;11.55;;;;;;;19.66;58.37;95049.28;4195957;28;20134;-83
2023/09/02 03:14:34;;;;;;;11.82;10.68;;;;;;;19.63;58.35;95039.88;4189339;28;20127;-83
2023/09/02 03:16:38;;;;;;;12.32;11.07;;;;;;;19.67;58.60;95048.25;4200322;28;20488;-83
2023/09/02 03:18:41;;;;;;;12.80;11.65;;;;;;;19.68;58.40;95049.06;4184865;28;20110;-82
2023/09/02 03:20:44;;;;;;;12.30;11.10;;;;;;;19.72;58.27;95047.66;4190519;28;20461;-83
2023/09/02 03:22:46;;;;;;;12.27;10.90;;;;;;;19.79;58.32;95045.81;4161833;28;20438;-85
2023/09/02 03:24:55;;;;;;;14.38;11.55;;;;;;;19.80;58.30;95047.44;4187245;28;20064;-84
2023/09/02 03:26:59;;;;;;;13.02;11.68;;;;;;;19.83;58.33;95047.00;4162744;28;20053;-83
2023/09/02 03:29:01;;;;;;;13.20;11.80;;;;;;;19.80;58.38;95039.47;4180268;28;20045;-83
2023/09/02 03:31:07;;;;;;;11.68;10.60;;;;;;;19.83;58.53;95042.53;4177705;28;20455;-83
2023/09/02 03:33:09;;;;;;;13.38;11.60;;;;;;;19.86;58.69;95043.97;4173263;28;20365;-84
2023/09/02 03:35:14;;;;;;;13.43;11.70;;;;;;;19.90;58.31;95039.84;4189315;28;20120;-83
2023/09/02 03:37:19;;;;;;;13.07;11.13;;;;;;;19.97;58.11;95039.84;4197342;28;20051;-83
2023/09/02 03:39:21;;;;;;;13.23;11.88;;;;;;;19.98;58.25;95042.28;4189968;28;20044;-84
2023/09/02 03:41:23;;;;;;;12.90;11.60;;;;;;;19.92;58.64;95042.28;4165854;28;20049;-83
2023/09/02 03:43:25;;;;;;;15.63;11.73;;;;;;;19.89;58.66;95043.53;4176332;28;20148;-82
2023/09/02 03:45:27;;;;;;;14.40;12.07;;;;;;;19.94;58.68;95051.72;4179051;28;20120;-81
2023/09/02 03:47:30;;;;;;;13.73;11.90;;;;;;;19.99;58.58;95054.56;4178453;28;20278;-84
2023/09/02 03:49:32;;;;;;;;;;;;;;;20.07;58.37;95050.84;4195531;28;20051;-83
2023/09/02 03:51:34;;;;;;;14.25;12.73;;;;;;;20.11;58.38;95051.25;4194550;28;20284;-84
2023/09/02 03:53:41;;;;;;;14.37;12.97;;;;;;;20.12;58.20;95052.88;4195161;28;20132;-83
2023/09/02 03:55:43;;;;;;;14.23;12.75;;;;;;;20.07;58.30;95047.34;4196935;28;20277;-84
2023/09/02 03:57:45;;;;;;;20.65;12.20;;;;;;;19.90;58.11;95060.31;4195046;28;20044;-83
2023/09/02 03:59:48;;;;;;;18.48;12.20;;;;;;;19.77;58.55;95064.63;4199696;28;20051;-85
2023/09/02 04:01:50;;;;;;;;;;;;;;;19.61;58.73;95052.53;4178374;28;20045;-83
2023/09/02 04:03:52;;;;;;;14.20;12.13;;;;;;;19.44;58.72;95054.00;4198407;28;19931;-85
2023/09/02 04:05:54;;;;;;;15.13;12.20;;;;;;;19.26;59.47;95059.13;4189149;28;20392;-83
2023/09/02 04:07:56;;;;;;;14.57;11.90;;;;;;;19.26;59.47;95064.44;4176514;28;20057;-83
2023/09/02 04:09:59;;;;;;;12.75;11.55;;;;;;;19.19;59.74;95061.78;4195580;28;20144;-86
2023/09/02 04:12:01;;;;;;;13.90;11.82;;;;;;;19.23;59.83;95055.03;4195788;28;20122;-85
2023/09/02 04:14:03;;;;;;;13.27;11.98;;;;;;;19.35;59.46;95060.53;4194291;28;20075;-85
2023/09/02 04:16:08;;;;;;;13.35;11.43;;;;;;;19.46;59.25;95057.25;4199607;28;20125;-85
2023/09/02 04:18:14;;;;;;;13.75;11.63;;;;;;;19.57;58.76;95061.94;4180135;28;20041;-84
2023/09/02 04:20:17;;;;;;;12.35;11.15;;;;;;;19.54;58.75;95059.72;4175041;28;20045;-83
2023/09/02 04:22:18;;;;;;;12.15;10.90;;;;;;;19.56;58.94;95065.63;4200673;28;20040;-83
2023/09/02 04:24:20;;;;;;;13.02;11.75;;;;;;;19.60;58.74;95058.88;4188588;28;20048;-84
2023/09/02 04:26:22;;;;;;;12.40;11.20;;;;;;;19.70;58.47;95066.47;4183932;28;20087;-85
2023/09/02 04:28:26;;;;;;;14.98;11.90;;;;;;;19.76;58.35;95070.16;4179909;28;20060;-82
2023/09/02 04:30:27;;;;;;;14.35;12.23;;;;;;;19.77;58.21;95067.28;4185406;28;20052;-86
2023/09/02 04:32:30;;;;;;;29.95;11.02;;;;;;;19.71;58.27;95067.31;4189444;28;20136;-87
2023/09/02 04:34:32;;;;;;;15.50;10.90;;;;;;;19.33;58.51;95068.69;4210095;28;20048;-85
2023/09/02 04:36:35;;;;;;;12.45;10.35;;;;;;;19.12;59.17;95069.75;4204454;28;20322;-83
2023/09/02 04:38:37;;;;;;;13.35;11.07;;;;;;;19.03;59.76;95062.97;4186002;28;20069;-84
2023/09/02 04:40:41;;;;;;;12.45;11.15;;;;;;;19.10;59.73;95077.09;4175646;28;20061;-87
2023/09/02 04:42:43;;;;;;;12.48;11.27;;;;;;;19.23;59.49;95071.78;4162933;28;20243;-83
2023/09/02 04:44:46;;;;;;;12.48;11.23;;;;;;;19.35;59.04;95073.81;4172868;28;20427;-83
2023/09/02 04:46:48;;;;;;;13.88;10.90;;;;;;;19.46;58.75;95085.69;4196037;28;20803;-85
2023/09/02 04:48:50;;;;;;;14.23;12.05;;;;;;;19.53;58.73;95075.84;4199031;28;20142;-83
2023/09/02 04:50:55;;;;;;;13.43;11.52;;;;;;;19.57;58.64;95074.41;4183965;28;20049;-84
2023/09/02 04:52:59;;;;;;;12.55;11.32;;;;;;;19.57;58.89;95077.06;4204682;28;20104;-82
2023/09/02 04:55:04;;;;;;;13.60;12.30;;;;;;;19.51;58.87;95076.06;4193352;28;20049;-85
2023/09/02 04:57:06;;;;;;;14.55;13.05;;;;;;;19.57;59.28;95075.22;4148024;28;20133;-86
2023/09/02 04:59:08;;;;;;;16.15;12.48;;;;;;;19.73;59.27;95083.84;4179080;28;20084;-85
2023/09/02 05:01:10;;;;;;;13.23;11.93;;;;;;;19.85;58.47;95076.88;4195598;28;20172;-86
2023/09/02 05:03:12;;;;;;;17.50;12.68;;;;;;;19.97;58.43;95080.53;4193689;28;20087;-86
2023/09/02 05:05:17;;;;;;;13.50;12.10;;;;;;;20.09;58.25;95071.91;4193723;28;20045;-88
2023/09/02 05:07:18;;;;;;;15.10;12.63;;;;;;;20.20;57.88;95072.09;4204495;28;20048;-86
2023/09/02 05:09:22;;;;;;;15.10;13.55;;;;;;;20.26;57.48;95078.41;4200106;28;20048;-85
2023/09/02 05:11:27;;;;;;;17.70;12.98;;;;;;;20.22;57.28;95080.69;4194754;28;20075;-84
2023/09/02 05:13:30;;;;;;;16.23;13.45;;;;;;;20.22;57.60;95082.53;4184021;28;20040;-84
2023/09/02 05:15:32;;;;;;;17.42;13.63;;;;;;;20.21;57.60;95081.69;4186295;28;20108;-83
2023/09/02 05:17:34;;;;;;;21.17;13.52;;;;;;;20.23;57.70;95084.16;4188581;28;20056;-84
2023/09/02 05:19:36;;;;;;;15.27;13.75;;;;;;;19.93;58.22;95086.47;4180218;28;20049;-84
2023/09/02 05:21:39;;;;;;;16.45;13.10;;;;;;;19.86;58.82;95091.81;4178610;28;20071;-84
2023/09/02 05:23:41;;;;;;;16.10;13.80;;;;;;;19.80;59.06;95090.78;4197699;28;20064;-85
2023/09/02 05:25:43;;;;;;;15.40;13.80;;;;;;;19.70;59.42;95090.38;4179948;28;20404;-86
2023/09/02 05:27:48;;;;;;;14.52;13.05;;;;;;;19.54;59.28;95083.63;4202032;28;20419;-86
2023/09/02 05:29:50;;;;;;;15.82;14.00;;;;;;;19.40;60.04;95092.63;4214047;28;20073;-84
2023/09/02 05:31:52;;;;;;;15.70;14.30;;;;;;;19.44;60.05;95089.38;4209107;28;20052;-86
2023/09/02 05:33:53;;;;;;;17.73;13.65;;;;;;;19.48;60.10;95102.22;4208071;28;20048;-87
2023/09/02 05:35:57;;;;;;;16.33;14.65;;;;;;;19.36;60.49;95089.56;4217231;28;20080;-83
2023/09/02 05:38:04;;;;;;;16.48;14.85;;;;;;;19.42;60.29;95093.22;4170037;28;20103;-83
2023/09/02 05:40:07;;;;;;;17.33;14.80;;;;;;;19.55;60.26;95087.09;4193329;28;20056;-82
2023/09/02 05:42:10;;;;;;;18.35;14.00;;;;;;;19.65;59.60;95077.69;4202186;28;20052;-86
2023/09/02 05:44:13;;;;;;;16.25;13.48;;;;;;;19.54;59.74;95091.59;4182801;28;20724;-83
2023/09/02 05:46:15;;;;;;;16.88;13.25;;;;;;;19.27;60.18;95087.31;4169380;28;20103;-85
2023/09/02 05:48:16;;;;;;;15.75;12.93;;;;;;;19.41;60.15;95091.59;4180085;28;20064;-85
2023/09/02 05:50:18;;;;;;;14.95;13.10;;;;;;;19.60;59.44;95093.44;4191988;28;20048;-85
2023/09/02 05:52:20;;;;;;;14.23;12.43;;;;;;;19.64;59.18;95092.00;4183203;28;20083;-82
2023/09/02 05:54:22;;;;;;;13.68;12.32;;;;;;;19.71;59.05;95091.22;4202966;28;20048;-85
2023/09/02 05:56:26;;;;;;;15.05;13.25;;;;;;;20.01;58.35;95099.56;4215337;28;20024;-85
2023/09/02 05:58:28;;;;;;;13.65;12.25;;;;;;;20.27;57.50;95098.66;4194415;28;20045;-85
2023/09/02 06:00:30;;;;;;;14.57;11.55;;;;;;;20.50;56.86;95097.34;4174759;28;20512;-87
2023/09/02 06:02:34;;;;;;;13.63;11.98;;;;;;;20.50;56.48;95111.50;4202375;28;20140;-86
2023/09/02 06:04:38;;;;;;;17.80;12.00;;;;;;;20.32;56.27;95106.03;4170505;28;20057;-83
2023/09/02 06:06:39;;;;;;;12.13;10.70;;;;;;;19.89;57.55;95104.69;4190676;28;20104;-83
2023/09/02 06:08:41;;;;;;;12.50;11.40;;;;;;;20.08;57.32;95104.88;4197337;28;20064;-84
2023/09/02 06:11:00;;;;;;;12.77;11.52;;;;;;;19.99;57.12;95110.41;4197293;28;20124;-83
2023/09/02 06:13:03;;;;;;;12.52;11.30;;;;;;;20.04;57.27;95107.09;4213303;28;20085;-84
2023/09/02 06:15:06;;;;;;;14.82;11.93;;;;;;;19.88;57.55;95111.03;4212413;28;20045;-82
2023/09/02 06:17:08;;;;;;;14.05;12.73;;;;;;;19.92;58.02;95112.25;4189425;28;20033;-82
2023/09/02 06:19:10;;;;;;;12.73;11.55;;;;;;;20.13;57.67;95113.03;4207741;28;20053;-82
2023/09/02 06:21:14;;;;;;;13.23;11.77;;;;;;;20.39;56.73;95120.09;4216176;28;20040;-83
2023/09/02 06:23:16;;;;;;;13.23;11.70;;;;;;;20.49;56.04;95109.84;4204761;28;20072;-83
2023/09/02 06:25:18;;;;;;;14.05;11.90;;;;;;;20.46;56.57;95108.44;4191987;28;20071;-82
2023/09/02 06:27:20;;;;;;;18.90;11.98;;;;;;;20.64;56.18;95101.63;4211535;28;20123;-80
2023/09/02 06:29:22;;;;;;;12.63;11.02;;;;;;;20.75;55.64;95108.94;4214435;28;20044;-81
2023/09/02 06:31:24;;;;;;;13.13;11.38;;;;;;;20.78;55.76;95111.19;4208981;28;20100;-82
2023/09/02 06:33:46;;;;;;;13.75;11.55;;;;;;;20.89;55.62;95103.53;4196048;28;20476;-82
2023/09/02 06:35:49;;;;;;;12.88;11.60;;;;;;;21.04;55.14;95109.41;4201479;28;20043;-82
2023/09/02 06:37:51;;;;;;;11.88;10.77;;;;;;;21.20;54.62;95113.41;4192113;28;20057;-85
2023/09/02 06:39:53;;;;;;;13.13;10.98;;;;;;;21.33;54.12;95104.50;4195023;28;20040;-84
2023/09/02 06:41:55;;;;;;;12.00;10.80;;;;;;;21.44;53.61;95106.50;4181483;28;20059;-84
2023/09/02 06:43:57;;;;;;;10.95;9.95;;;;;;;21.41;53.69;95107.75;4201281;28;20052;-85
2023/09/02 06:46:08;;;;;;;12.32;11.05;;;;;;;21.21;53.77;95099.88;4195046;28;20056;-85
2023/09/02 06:48:09;;;;;;;12.52;10.10;;;;;;;21.40;53.68;95107.94;4195928;28;20144;-84
2023/09/02 06:50:11;;;;;;;11.02;9.85;;;;;;;21.63;53.34;95113.53;4196159;28;20056;-83
2023/09/02 06:52:15;;;;;;;11.05;9.95;;;;;;;21.88;53.09;95104.72;4169317;28;20060;-83
2023/09/02 06:54:18;;;;;;;10.95;9.85;;;;;;;22.12;52.33;95104.91;4194749;28;20456;-86
2023/09/02 06:56:22;;;;;;;11.85;10.20;;;;;;;22.36;51.25;95114.72;4198283;28;20139;-86
2023/09/02 06:58:27;;;;;;;12.20;10.85;;;;;;;22.44;50.64;95111.75;4179595;28;20049;-83
2023/09/02 07:00:33;;;;;;;11.18;10.13;;;;;;;22.45;50.98;95113.38;4188162;28;20078;-85
2023/09/02 07:02:35;;;;;;;11.50;10.40;;;;;;;22.58;50.75;95114.25;4179386;28;20243;-84
2023/09/02 07:04:39;;;;;;;10.23;9.27;;;;;;;22.70;50.05;95112.47;4174373;28;20060;-85
2023/09/02 07:06:41;;;;;;;12.25;9.63;;;;;;;22.52;49.95;95107.97;4175076;28;20065;-86
2023/09/02 07:08:43;;;;;;;12.05;8.45;;;;;;;22.58;50.11;95106.25;4200670;28;20102;-85
2023/09/02 07:10:45;;;;;;;9.90;8.90;;;;;;;22.59;49.85;95111.38;4184510;28;20477;-89
2023/09/02 07:12:52;;;;;;;10.95;9.32;;;;;;;22.73;49.89;95104.00;4185065;28;20421;-87
2023/09/02 07:14:54;;;;;;;10.88;9.55;;;;;;;22.84;49.40;95103.28;4180744;28;20033;-87
2023/09/02 07:16:56;;;;;;;10.23;9.07;;;;;;;22.97;49.41;95110.25;4182112;28;20099;-84
2023/09/02 07:18:58;;;;;;;10.95;9.65;;;;;;;23.04;48.88;95104.88;4198307;28;20098;-83
2023/09/02 07:21:01;;;;;;;10.33;9.23;;;;;;;23.02;49.17;95110.44;4169104;28;20404;-84
2023/09/02 07:23:03;;;;;;;;;;;;;;;23.01;49.31;95113.34;4191966;28;20044;-85
2023/09/02 07:25:06;;;;;;;17.35;12.48;;;;;;;23.03;48.93;95111.25;4206789;28;19923;-87
2023/09/02 07:27:08;;;;;;;13.70;10.70;;;;;;;22.90;49.46;95106.88;4183431;28;20155;-87
2023/09/02 07:29:11;;;;;;;10.68;9.68;;;;;;;22.79;49.41;95111.13;4161937;28;20516;-87
2023/09/02 07:31:17;;;;;;;10.68;9.57;;;;;;;22.95;49.31;95109.69;4190120;28;20110;-84
2023/09/02 07:33:19;;;;;;;11.20;10.10;;;;;;;22.80;49.42;95102.09;4192225;28;20080;-85
2023/09/02 07:35:22;;;;;;;;;;;;;;;22.73;50.14;95114.69;4185728;28;20396;-87
2023/09/02 07:37:27;;;;;;;12.15;10.27;;;;;;;22.85;49.38;95107.56;4173001;28;20016;-85
2023/09/02 07:39:29;;;;;;;13.50;9.57;;;;;;;23.04;49.23;95105.69;4173362;28;20069;-84
2023/09/02 07:41:31;;;;;;;10.20;9.20;;;;;;;23.19;48.46;95109.78;4186363;28;20060;-87
2023/09/02 07:43:33;;;;;;;10.55;9.55;;;;;;;23.43;48.40;95105.34;4197349;28;20048;-85
2023/09/02 07:45:35;;;;;;;11.68;9.77;;;;;;;23.56;47.86;95102.44;4180308;28;20049;-83
2023/09/02 07:47:37;;;;;;;16.90;12.88;;;;;;;23.73;47.59;95101.78;4205928;28;20040;-85
2023/09/02 07:49:38;;;;;;;10.73;9.73;;;;;;;23.74;47.18;95106.88;4189615;28;20044;-83
2023/09/02 07:51:40;;;;;;;11.65;9.27;;;;;;;23.76;47.75;95104.03;4181652;28;20045;-85
2023/09/02 07:53:42;;;;;;;10.85;9.80;;;;;;;23.79;47.74;95106.22;4190974;28;20091;-85
2023/09/02 07:55:44;;;;;;;13.07;10.52;;;;;;;23.96;47.36;95104.47;4192531;28;20415;-83
2023/09/02 07:57:46;;;;;;;12.35;9.85;;;;;;;24.11;46.83;95112.03;4148649;28;20379;-86
2023/09/02 07:59:48;;;;;;;13.07;9.73;;;;;;;24.16;46.96;95106.81;4166888;28;20124;-84
2023/09/02 08:01:49;;;;;;;11.50;9.40;;;;;;;24.26;46.47;95107.06;4162941;28;20428;-85
2023/09/02 08:03:52;;;;;;;10.02;9.02;;;;;;;24.39;45.95;95108.63;4191661;28;20088;-86
2023/09/02 08:05:54;;;;;;;11.27;9.00;;;;;;;24.52;45.76;95107.59;4180712;28;20052;-83
2023/09/02 08:07:56;;;;;;;12.10;9.32;;;;;;;24.57;45.39;95114.94;4194871;28;20180;-84
2023/09/02 08:10:01;;;;;;;10.82;8.98;;;;;;;24.66;45.29;95111.66;4207651;28;20053;-86
2023/09/02 08:12:04;;;;;;;10.57;9.55;;;;;;;24.69;45.20;95115.72;4179978;28;20052;-85
2023/09/02 08:14:07;;;;;;;;;;;;;;;24.71;45.42;95111.72;4207209;28;20055;-86
2023/09/02 08:16:09;;;;;;;10.57;9.38;;;;;;;24.41;45.74;95116.44;4183093;28;20014;-86
2023/09/02 08:18:11;;;;;;;10.93;9.93;;;;;;;24.28;45.85;95118.31;4191209;28;20044;-84
2023/09/02 08:20:14;;;;;;;11.43;9.88;;;;;;;24.07;46.27;95121.59;4193350;28;20055;-83
2023/09/02 08:22:17;;;;;;;13.75;9.18;;;;;;;24.15;46.22;95120.44;4177449;28;20037;-84
2023/09/02 08:24:20;;;;;;;12.23;10.38;;;;;;;24.09;46.56;95119.50;4191757;28;20056;-85
2023/09/02 08:26:22;;;;;;;12.55;9.57;;;;;;;24.07;46.45;95111.72;4202102;28;20060;-84
2023/09/02 08:28:24;;;;;;;11.88;9.38;;;;;;;24.05;46.50;95116.47;4187120;28;20095;-83
2023/09/02 08:30:27;;;;;;;12.73;10.20;;;;;;;24.11;46.49;95118.22;4182591;28;20040;-84
2023/09/02 08:32:30;;;;;;;10.43;9.43;;;;;;;24.35;46.19;95112.03;4187793;28;20075;-82
2023/09/02 08:34:33;;;;;;;12.40;9.80;;;;;;;24.41;46.28;95111.88;4173416;28;20057;-83
2023/09/02 08:36:38;;;;;;;10.18;9.10;;;;;;;24.64;45.69;95105.72;4187074;28;20041;-86
2023/09/02 08:38:40;;;;;;;11.15;9.95;;;;;;;24.91;45.06;95105.19;4172660;28;20074;-88
2023/09/02 08:40:45;;;;;;;10.25;8.90;;;;;;;25.19;44.57;95101.69;4188362;28;20053;-86
2023/09/02 08:42:47;;;;;;;10.40;9.40;;;;;;;25.30;44.01;95098.16;4199134;28;20442;-83
2023/09/02 08:44:50;;;;;;;11.30;8.85;;;;;;;25.42;43.78;95095.38;4201467;28;20507;-83
2023/09/02 08:46:53;;;;;;;12.67;8.57;;;;;;;25.39;43.58;95095.06;4202285;28;20153;-81
2023/09/02 08:48:56;;;;;;;9.20;8.18;;;;;;;25.44;43.50;95095.16;4200044;28;20288;-84
2023/09/02 08:50:58;;;;;;;11.18;8.63;;;;;;;25.46;43.35;95101.88;4184999;28;20096;-85
2023/09/02 08:53:00;;;;;;;11.02;8.50;;;;;;;25.44;43.68;95103.19;4181013;28;20045;-85
2023/09/02 08:55:03;;;;;;;10.60;8.30;;;;;;;25.28;43.72;95104.81;4191681;28;20066;-86
2023/09/02 08:57:11;;;;;;;9.43;8.40;;;;;;;25.23;43.54;95105.53;4161437;28;20068;-86
2023/09/02 08:59:13;;;;;;;9.30;8.23;;;;;;;25.05;43.88;95094.97;4178169;28;20052;-83
2023/09/02 09:01:18;;;;;;;12.87;7.93;;;;;;;25.21;43.47;95096.09;4190457;28;20185;-84
2023/09/02 09:03:20;;;;;;;8.80;7.80;;;;;;;25.32;43.63;95096.03;4191413;28;20539;-84
2023/09/02 09:05:23;;;;;;;17.33;8.00;;;;;;;25.32;43.29;95095.22;4181443;28;20053;-84
2023/09/02 09:07:26;;;;;;;10.60;7.40;;;;;;;25.29;43.60;95087.66;4178351;28;20072;-85
2023/09/02 09:09:28;;;;;;;;;;;;;;;25.59;42.92;95081.97;4189928;28;20120;-86
2023/09/02 09:11:35;;;;;;;12.77;7.60;;;;;;;25.79;42.38;95088.72;4190007;28;20011;-81
2023/09/02 09:13:43;;;;;;;10.82;6.85;;;;;;;26.01;41.88;95089.66;4180201;28;20136;-84
2023/09/02 09:15:47;;;;;;;8.57;6.38;;;;;;;26.28;41.79;95089.75;4183204;28;20108;-83
2023/09/02 09:17:49;;;;;;;9.60;6.20;;;;;;;26.35;41.37;95084.22;4176220;28;20050;-83
2023/09/02 09:19:52;;;;;;;7.47;6.40;;;;;;;26.35;41.23;95081.53;4191652;28;20053;-83
2023/09/02 09:21:55;;;;;;;10.18;6.60;;;;;;;26.54;41.01;95092.75;4194896;28;20120;-83
2023/09/02 09:23:56;;;;;;;9.18;6.47;;;;;;;26.65;40.83;95077.59;4182116;28;20097;-84
2023/09/02 09:25:58;;;;;;;6.93;6.25;;;;;;;26.76;40.59;95079.38;4196954;28;20379;-87
2023/09/02 09:28:11;;;;;;;9.63;6.53;;;;;;;26.78;40.03;95079.94;4194049;28;20052;-83
2023/09/02 09:30:30;;;;;;;7.60;5.88;;;;;;;26.83;40.00;95077.31;4173013;28;20069;-84